Time;durP1;ratioP1;P1;durP2;ratioP2;P2;SDS_P1;SDS_P2;PMS_P1;PMS_P2;Temp;Humidity;BMP_temperature;BMP_pressure;BME280_temperature;BME280_humidity;BME280_pressure;Samples;Min_cycle;Max_cycle;Signal;HPM_P1;HPM_P2
2022/04/11 00:02:14;;;;;;;21.47;10.77;;;2.10;99.90;;;;;;4439184;32;20573;-68
2022/04/11 00:04:42;;;;;;;21.03;10.57;;;2.00;99.90;;;;;;4439083;32;20247;-69
2022/04/11 00:07:10;;;;;;;18.83;10.00;;;2.00;99.90;;;;;;4438935;32;20227;-69
2022/04/11 00:09:37;;;;;;;21.67;10.77;;;2.00;99.90;;;;;;4438239;32;20227;-69
2022/04/11 00:12:09;;;;;;;21.30;10.57;;;2.00;99.90;;;;;;4439173;32;20273;-69
2022/04/11 00:14:39;;;;;;;17.87;9.67;;;2.00;99.90;;;;;;4438340;32;20182;-69
2022/04/11 00:17:07;;;;;;;17.93;9.40;;;2.00;99.90;;;;;;4438177;32;20178;-69
2022/04/11 00:19:38;;;;;;;21.27;10.03;;;2.00;99.90;;;;;;4440121;32;20186;-69
2022/04/11 00:22:05;;;;;;;24.13;10.03;;;2.00;99.90;;;;;;4439134;32;20186;-69
2022/04/11 00:24:32;;;;;;;23.53;10.03;;;2.00;99.90;;;;;;4439621;32;20183;-69
2022/04/11 00:26:59;;;;;;;20.50;10.30;;;2.10;99.90;;;;;;4439721;32;20142;-69
2022/04/11 00:29:27;;;;;;;17.17;9.47;;;2.10;99.90;;;;;;4438334;32;20174;-69
2022/04/11 00:31:54;;;;;;;17.53;9.17;;;2.20;99.90;;;;;;4439560;32;20254;-69
2022/04/11 00:34:22;;;;;;;17.10;9.17;;;2.20;99.90;;;;;;4438996;32;20228;-69
2022/04/11 00:36:55;;;;;;;19.23;9.50;;;2.20;99.90;;;;;;4439300;32;20186;-69
2022/04/11 00:39:26;;;;;;;19.07;9.30;;;2.20;99.90;;;;;;4438848;32;20240;-69
2022/04/11 00:41:53;;;;;;;18.93;9.10;;;2.30;99.90;;;;;;4438422;32;20184;-69
2022/04/11 00:44:20;;;;;;;17.80;9.53;;;2.30;99.90;;;;;;4439760;32;20183;-69
2022/04/11 00:46:49;;;;;;;17.57;8.70;;;2.30;99.90;;;;;;4437938;32;20174;-69
2022/04/11 00:49:16;;;;;;;15.63;8.97;;;2.40;99.90;;;;;;4439137;32;20514;-68
2022/04/11 00:51:44;;;;;;;15.53;8.67;;;2.30;99.90;;;;;;4438323;32;20217;-69
2022/04/11 00:54:12;;;;;;;15.07;8.47;;;2.40;99.90;;;;;;4440543;32;20174;-69
2022/04/11 00:56:40;;;;;;;19.57;8.63;;;2.40;99.90;;;;;;4438335;32;20448;-69
2022/04/11 00:59:07;;;;;;;14.67;7.80;;;2.40;99.90;;;;;;4439352;32;20139;-69
2022/04/11 01:04:43;;;;;;;15.17;7.87;;;2.30;99.90;;;;;;4406140;32;20182;-69
2022/04/11 01:07:34;;;;;;;15.57;8.37;;;2.40;99.90;;;;;;4393329;32;20573;-68
2022/04/11 01:10:05;;;;;;;15.40;8.13;;;2.30;99.90;;;;;;4393701;32;20436;-68
2022/04/11 01:12:36;;;;;;;16.10;8.67;;;2.30;99.90;;;;;;4395157;32;20189;-69
2022/04/11 01:15:05;;;;;;;14.43;8.43;;;2.40;99.90;;;;;;4393527;32;20198;-69
2022/04/11 01:17:37;;;;;;;17.13;9.00;;;2.30;99.90;;;;;;4393757;32;20175;-69
2022/04/11 01:20:10;;;;;;;18.67;9.40;;;2.30;99.90;;;;;;4393925;32;20199;-69
2022/04/11 01:22:44;;;;;;;16.70;8.60;;;2.30;99.90;;;;;;4393670;32;20202;-69
2022/04/11 01:25:15;;;;;;;16.73;8.90;;;2.30;99.90;;;;;;4393350;32;20359;-69
2022/04/11 01:27:43;;;;;;;14.73;8.60;;;2.20;99.90;;;;;;4393498;32;20175;-69
2022/04/11 01:30:12;;;;;;;17.47;8.97;;;2.20;99.90;;;;;;4393374;32;20179;-69
2022/04/11 01:32:40;;;;;;;18.00;8.67;;;2.30;99.90;;;;;;4394177;32;20187;-68
2022/04/11 01:35:24;;;;;;;16.47;8.80;;;2.20;99.90;;;;;;4393300;32;20176;-69
2022/04/11 01:37:52;;;;;;;17.20;8.33;;;2.20;99.90;;;;;;4393413;32;20205;-69
2022/04/11 01:40:20;;;;;;;18.13;9.17;;;2.20;99.90;;;;;;4395650;32;20272;-69
2022/04/11 01:42:47;;;;;;;17.33;9.00;;;2.20;99.90;;;;;;4443394;32;20432;-69
2022/04/11 01:45:16;;;;;;;17.10;9.20;;;2.20;99.90;;;;;;4440141;32;20214;-69
2022/04/11 01:47:46;;;;;;;22.47;9.37;;;2.30;99.90;;;;;;4441216;32;20237;-69
2022/04/11 01:50:14;;;;;;;23.23;10.20;;;2.30;99.90;;;;;;4441096;32;20179;-68
2022/04/11 01:52:47;;;;;;;18.50;9.97;;;2.30;99.90;;;;;;4440429;32;20229;-68
2022/04/11 01:55:14;;;;;;;15.67;8.67;;;2.30;99.90;;;;;;4440305;32;20564;-68
2022/04/11 01:57:44;;;;;;;18.90;9.43;;;2.30;99.90;;;;;;4442344;32;20135;-68
2022/04/11 02:00:12;;;;;;;16.57;9.00;;;2.20;99.90;;;;;;4441329;32;20236;-68
2022/04/11 02:02:39;;;;;;;17.33;9.13;;;2.30;99.90;;;;;;4439995;32;20528;-69
2022/04/11 02:05:07;;;;;;;18.40;9.43;;;2.30;99.90;;;;;;4440451;32;20484;-68
2022/04/11 02:07:34;;;;;;;17.47;9.73;;;2.30;99.90;;;;;;4442877;32;20200;-69
2022/04/11 02:10:08;;;;;;;18.97;9.93;;;2.20;99.90;;;;;;4442535;32;20456;-68
2022/04/11 02:12:52;;;;;;;20.07;10.30;;;2.20;99.90;;;;;;4443176;32;20146;-68
2022/04/11 02:15:26;;;;;;;23.43;11.10;;;2.10;99.90;;;;;;4440473;32;20223;-69
2022/04/11 02:17:55;;;;;;;19.50;10.30;;;2.10;99.90;;;;;;4442176;32;20181;-68
2022/04/11 02:20:22;;;;;;;19.10;10.70;;;2.10;99.90;;;;;;4440292;32;20182;-69
2022/04/11 02:22:57;;;;;;;20.07;10.93;;;2.10;99.90;;;;;;4441120;32;20385;-68
2022/04/11 02:25:27;;;;;;;19.57;11.47;;;2.10;99.90;;;;;;4439837;32;20225;-68
2022/04/11 02:27:55;;;;;;;18.70;10.77;;;2.10;99.90;;;;;;4440962;32;20196;-68
2022/04/11 02:30:23;;;;;;;18.90;10.60;;;2.00;99.90;;;;;;4440049;32;20223;-68
2022/04/11 02:32:52;;;;;;;19.47;10.90;;;2.00;99.90;;;;;;4441017;32;20246;-69
2022/04/11 02:35:20;;;;;;;19.80;10.90;;;2.00;99.90;;;;;;4440141;32;20442;-68
2022/04/11 02:37:50;;;;;;;19.83;11.07;;;1.90;99.90;;;;;;4441116;32;20182;-69
2022/04/11 02:40:17;;;;;;;22.27;11.30;;;1.90;99.90;;;;;;4440243;32;20512;-68
2022/04/11 02:42:47;;;;;;;20.47;11.43;;;1.90;99.90;;;;;;4441061;32;20534;-68
2022/04/11 02:45:16;;;;;;;21.37;10.73;;;1.80;99.90;;;;;;4439494;32;20558;-68
2022/04/11 02:47:44;;;;;;;19.93;11.40;;;1.80;99.90;;;;;;4440416;32;20659;-68
2022/04/11 02:50:12;;;;;;;20.93;11.47;;;1.80;99.90;;;;;;4439532;32;20187;-68
2022/04/11 02:52:39;;;;;;;19.60;11.13;;;1.70;99.90;;;;;;4439887;32;20454;-69
2022/04/11 02:55:07;;;;;;;20.60;11.20;;;1.70;99.90;;;;;;4440506;32;20548;-68
2022/04/11 02:57:38;;;;;;;23.57;11.37;;;1.80;99.90;;;;;;4439881;32;20197;-68
2022/04/11 03:00:12;;;;;;;23.70;11.57;;;1.80;99.90;;;;;;4440721;32;20199;-69
2022/04/11 03:02:39;;;;;;;20.70;10.97;;;1.80;99.90;;;;;;4427056;32;20193;-69
2022/04/11 03:05:07;;;;;;;20.97;10.73;;;1.70;99.90;;;;;;4440625;32;20188;-69
2022/04/11 03:07:36;;;;;;;22.10;11.87;;;1.70;99.90;;;;;;4440727;32;20474;-69
2022/04/11 03:10:03;;;;;;;23.60;11.27;;;1.70;99.90;;;;;;4439052;32;20178;-68
2022/04/11 03:12:33;;;;;;;23.70;11.70;;;1.70;99.90;;;;;;4438961;32;20183;-69
2022/04/11 03:15:01;;;;;;;22.30;11.53;;;1.60;99.90;;;;;;4438563;32;20600;-68
2022/04/11 03:17:29;;;;;;;22.43;11.20;;;1.50;99.90;;;;;;4439550;32;20170;-68
2022/04/11 03:19:56;;;;;;;18.93;11.30;;;1.50;99.90;;;;;;4439227;32;20425;-69
2022/04/11 03:22:24;;;;;;;22.60;11.63;;;1.50;99.90;;;;;;4439866;32;20515;-68
2022/04/11 03:24:52;;;;;;;21.37;11.33;;;1.40;99.90;;;;;;4440213;32;20174;-68
2022/04/11 03:27:20;;;;;;;21.33;11.10;;;1.40;99.90;;;;;;4440312;32;20457;-69
2022/04/11 03:29:54;;;;;;;23.43;12.13;;;1.40;99.90;;;;;;4440598;32;20147;-68
2022/04/11 03:32:22;;;;;;;21.47;11.70;;;1.40;99.90;;;;;;4439604;32;20178;-69
2022/04/11 03:34:51;;;;;;;20.53;10.83;;;1.30;99.90;;;;;;4439443;32;20527;-69
2022/04/11 03:37:19;;;;;;;22.37;11.87;;;1.30;99.90;;;;;;4439769;32;20174;-69
2022/04/11 03:39:46;;;;;;;21.43;12.23;;;1.30;99.90;;;;;;4440699;32;20169;-68
2022/04/11 03:42:17;;;;;;;23.37;12.50;;;1.30;99.90;;;;;;4439339;32;20175;-68
2022/04/11 03:44:50;;;;;;;26.13;12.73;;;1.20;99.90;;;;;;4438537;32;20223;-68
2022/04/11 03:47:23;;;;;;;23.30;11.93;;;1.20;99.90;;;;;;4440093;32;20233;-68
2022/04/11 03:49:50;;;;;;;22.07;12.23;;;1.20;99.90;;;;;;4440415;32;20289;-69
2022/04/11 03:52:18;;;;;;;26.93;13.03;;;1.10;99.90;;;;;;4440208;32;20435;-69
2022/04/11 03:54:57;;;;;;;24.43;13.17;;;1.20;99.90;;;;;;4438422;32;20178;-68
2022/04/11 03:57:25;;;;;;;25.97;12.27;;;1.20;99.90;;;;;;4438610;32;20205;-68
2022/04/11 03:59:52;;;;;;;24.87;12.87;;;1.10;99.90;;;;;;4440723;32;20143;-68
2022/04/11 04:02:20;;;;;;;23.67;12.90;;;1.10;99.90;;;;;;4438187;32;20204;-68
2022/04/11 04:04:47;;;;;;;22.17;12.60;;;1.10;99.90;;;;;;4438041;32;20185;-69
2022/04/11 04:07:17;;;;;;;22.57;12.57;;;1.10;99.90;;;;;;4439473;32;20216;-68
2022/04/11 04:09:45;;;;;;;23.73;12.73;;;1.10;99.90;;;;;;4438965;32;20239;-68
2022/04/11 04:12:12;;;;;;;23.13;13.00;;;1.10;99.90;;;;;;4438384;32;20186;-68
2022/04/11 04:14:39;;;;;;;25.00;13.53;;;1.10;99.90;;;;;;4439457;32;20569;-68
2022/04/11 04:17:09;;;;;;;22.90;12.50;;;1.10;99.90;;;;;;4439906;32;20150;-69
2022/04/11 04:19:36;;;;;;;23.70;13.33;;;1.10;99.90;;;;;;4439183;32;20408;-68
2022/04/11 04:22:04;;;;;;;27.10;13.60;;;1.10;99.90;;;;;;4438740;32;20167;-69
2022/04/11 04:24:32;;;;;;;23.67;12.73;;;1.10;99.90;;;;;;4438907;32;20509;-68
2022/04/11 04:27:01;;;;;;;23.63;12.83;;;1.10;99.90;;;;;;4438811;32;20182;-68
2022/04/11 04:29:28;;;;;;;22.67;13.07;;;1.10;99.90;;;;;;4438717;32;20222;-69
2022/04/11 04:31:56;;;;;;;29.00;13.17;;;1.10;99.90;;;;;;4439432;32;20544;-68
2022/04/11 04:34:25;;;;;;;23.67;12.97;;;1.10;99.90;;;;;;4438082;32;20204;-68
2022/04/11 04:36:53;;;;;;;25.23;13.20;;;1.10;99.90;;;;;;4437721;32;20475;-69
2022/04/11 04:39:21;;;;;;;22.70;13.23;;;1.20;99.90;;;;;;4438394;32;20178;-69
2022/04/11 04:41:47;;;;;;;23.43;13.33;;;1.20;99.90;;;;;;4438289;32;20249;-68
2022/04/11 04:44:14;;;;;;;26.80;13.37;;;1.30;99.90;;;;;;4438650;32;20496;-68
2022/04/11 04:46:42;;;;;;;26.20;13.93;;;1.30;99.90;;;;;;4438030;32;20250;-69
2022/04/11 04:49:09;;;;;;;26.90;13.57;;;1.30;99.90;;;;;;4439220;32;20175;-68
2022/04/11 04:51:37;;;;;;;25.03;13.00;;;1.30;99.90;;;;;;4438988;32;20179;-68
2022/04/11 04:54:06;;;;;;;23.90;13.47;;;1.30;99.90;;;;;;4439043;32;20248;-68
2022/04/11 04:56:33;;;;;;;26.00;13.60;;;1.30;99.90;;;;;;4440978;32;20487;-69
2022/04/11 04:59:00;;;;;;;21.90;13.37;;;1.40;99.90;;;;;;4440599;32;20238;-69
2022/04/11 05:01:28;;;;;;;23.87;14.13;;;1.40;99.90;;;;;;4437591;32;20527;-69
2022/04/11 05:03:55;;;;;;;22.40;13.47;;;1.50;99.90;;;;;;4440176;32;20202;-69
2022/04/11 05:06:22;;;;;;;24.67;14.07;;;1.60;99.90;;;;;;4438235;32;20209;-69
2022/04/11 05:08:50;;;;;;;25.87;13.53;;;1.60;99.90;;;;;;4439734;32;20416;-68
2022/04/11 05:11:17;;;;;;;25.00;14.17;;;1.70;99.90;;;;;;4437654;32;20174;-68
2022/04/11 05:13:44;;;;;;;23.37;13.30;;;1.80;99.90;;;;;;4440222;32;20150;-68
2022/04/11 05:16:12;;;;;;;23.27;12.83;;;1.90;99.90;;;;;;4441112;32;20174;-69
2022/04/11 05:18:39;;;;;;;24.00;13.47;;;2.00;99.90;;;;;;4442072;32;20238;-68
2022/04/11 05:21:07;;;;;;;26.37;13.60;;;2.10;99.90;;;;;;4441679;32;20197;-68
2022/04/11 05:23:34;;;;;;;22.00;12.93;;;2.20;99.90;;;;;;4440977;32;20171;-69
2022/04/11 05:26:03;;;;;;;22.97;12.97;;;2.20;99.90;;;;;;4446664;32;20230;-68
2022/04/11 05:28:34;;;;;;;20.93;12.50;;;2.30;99.90;;;;;;4454230;32;20182;-68
2022/04/11 05:31:01;;;;;;;22.73;13.10;;;2.30;99.90;;;;;;4443242;32;20480;-69
2022/04/11 05:33:29;;;;;;;21.43;12.07;;;2.40;99.90;;;;;;4440864;32;20205;-69
2022/04/11 05:35:57;;;;;;;22.17;12.93;;;2.50;99.90;;;;;;4441530;32;20570;-69
2022/04/11 05:38:25;;;;;;;22.13;12.27;;;2.60;99.90;;;;;;4441194;32;20170;-69
2022/04/11 05:40:52;;;;;;;22.73;12.27;;;2.70;99.90;;;;;;4441352;32;20166;-69
2022/04/11 05:43:20;;;;;;;22.20;11.63;;;2.80;99.90;;;;;;4441140;32;20183;-69
2022/04/11 05:45:50;;;;;;;22.63;11.47;;;2.90;99.90;;;;;;4441488;32;20225;-69
2022/04/11 05:48:20;;;;;;;20.77;12.10;;;3.00;99.90;;;;;;4441557;32;20450;-69
2022/04/11 05:50:47;;;;;;;21.27;11.77;;;3.00;99.90;;;;;;4440112;32;20518;-69
2022/04/11 05:53:15;;;;;;;20.73;11.93;;;3.10;99.90;;;;;;4440038;32;20223;-66
2022/04/11 05:55:43;;;;;;;23.63;12.43;;;3.10;99.90;;;;;;4441254;32;20150;-66
2022/04/11 05:58:10;;;;;;;20.33;11.90;;;3.20;99.90;;;;;;4442094;32;20172;-66
2022/04/11 06:00:37;;;;;;;20.37;12.23;;;3.30;99.90;;;;;;4441788;32;20172;-66
2022/04/11 06:03:04;;;;;;;22.13;13.13;;;3.40;99.90;;;;;;4439979;32;20217;-66
2022/04/11 06:05:32;;;;;;;23.80;13.37;;;3.60;99.90;;;;;;4441062;32;20242;-66
2022/04/11 06:07:59;;;;;;;22.23;13.40;;;3.80;99.90;;;;;;4442152;32;20214;-66
2022/04/11 06:10:26;;;;;;;21.47;13.27;;;4.00;99.90;;;;;;4441106;32;20552;-65
2022/04/11 06:12:54;;;;;;;22.70;13.77;;;4.00;99.90;;;;;;4442411;32;20176;-66
2022/04/11 06:15:21;;;;;;;26.27;13.53;;;4.00;99.90;;;;;;4441446;32;20224;-66
2022/04/11 06:17:54;;;;;;;27.30;16.73;;;4.00;99.90;;;;;;4440712;32;20171;-68
2022/04/11 06:20:21;;;;;;;25.93;17.23;;;3.90;99.90;;;;;;4441567;32;20170;-68
2022/04/11 06:22:48;;;;;;;30.87;17.77;;;3.90;99.90;;;;;;4454975;32;20148;-69
2022/04/11 06:25:15;;;;;;;32.40;18.90;;;3.90;99.90;;;;;;4455490;32;20211;-68
2022/04/11 06:27:42;;;;;;;30.13;18.27;;;3.80;99.90;;;;;;4455372;32;20523;-68
2022/04/11 06:30:10;;;;;;;28.47;17.93;;;3.90;99.90;;;;;;4456966;32;20160;-68
2022/04/11 06:32:37;;;;;;;29.73;18.27;;;4.10;99.90;;;;;;4455240;32;20166;-68
2022/04/11 06:35:04;;;;;;;32.60;18.60;;;4.20;99.90;;;;;;4455448;32;20204;-69
2022/04/11 06:37:31;;;;;;;30.67;18.37;;;4.30;99.90;;;;;;4455078;32;20170;-71
2022/04/11 06:39:59;;;;;;;26.80;17.33;;;4.50;99.90;;;;;;4454465;32;20229;-70
2022/04/11 06:42:26;;;;;;;26.87;16.30;;;4.50;99.90;;;;;;4455334;32;20623;-70
2022/04/11 06:44:53;;;;;;;27.50;16.77;;;4.50;99.90;;;;;;4455982;32;20179;-70
2022/04/11 06:47:23;;;;;;;26.30;16.17;;;4.60;99.90;;;;;;4454756;32;20179;-71
2022/04/11 06:49:50;;;;;;;30.87;16.87;;;4.70;99.90;;;;;;4455915;32;20194;-70
2022/04/11 06:52:17;;;;;;;25.83;16.63;;;5.00;99.90;;;;;;4453280;32;20196;-71
2022/04/11 06:54:45;;;;;;;26.90;18.23;;;4.90;99.90;;;;;;4452211;32;20197;-70
2022/04/11 06:57:12;;;;;;;26.93;16.60;;;4.70;99.90;;;;;;4440735;32;20563;-71
2022/04/11 06:59:39;;;;;;;28.03;18.03;;;4.80;99.90;;;;;;4440069;32;20182;-70
2022/04/11 07:02:07;;;;;;;25.97;16.87;;;4.90;99.90;;;;;;4439403;32;20296;-71
2022/04/11 07:04:34;;;;;;;30.13;17.40;;;4.90;99.90;;;;;;4438745;32;20163;-70
2022/04/11 07:07:01;;;;;;;26.23;17.97;;;4.90;99.90;;;;;;4439744;32;20187;-70
2022/04/11 07:09:35;;;;;;;33.23;19.43;;;4.50;99.90;;;;;;4439932;32;20264;-70
2022/04/11 07:12:02;;;;;;;27.20;18.30;;;4.40;99.90;;;;;;4439431;32;20505;-70
2022/04/11 07:14:29;;;;;;;28.20;18.77;;;4.20;99.90;;;;;;4440617;32;20191;-70
2022/04/11 07:17:04;;;;;;;29.53;19.17;;;4.20;99.90;;;;;;4439733;32;20171;-70
2022/04/11 07:19:32;;;;;;;29.27;17.57;;;4.40;99.90;;;;;;4440710;32;20174;-70
2022/04/11 07:21:59;;;;;;;26.47;17.30;;;4.60;99.90;;;;;;4439718;32;20243;-71
2022/04/11 07:24:27;;;;;;;29.90;16.77;;;5.00;99.90;;;;;;4441077;32;20246;-70
2022/04/11 07:26:54;;;;;;;27.93;16.40;;;5.20;99.90;;;;;;4441672;32;20143;-71
2022/04/11 07:29:22;;;;;;;23.90;15.63;;;5.30;99.90;;;;;;4440612;32;20187;-70
2022/04/11 07:31:49;;;;;;;23.00;15.93;;;5.40;99.90;;;;;;4439317;32;20223;-70
2022/04/11 07:34:17;;;;;;;22.13;15.23;;;5.60;99.90;;;;;;4440376;32;20482;-70
2022/04/11 07:36:44;;;;;;;24.23;15.47;;;5.60;99.90;;;;;;4439594;32;20179;-70
2022/04/11 07:39:13;;;;;;;22.90;15.37;;;5.70;99.90;;;;;;4447796;32;20204;-70
2022/04/11 07:41:40;;;;;;;21.63;14.53;;;5.80;99.90;;;;;;4438897;32;20554;-70
2022/04/11 07:44:11;;;;;;;23.83;16.07;;;6.00;99.90;;;;;;4439665;32;20175;-70
2022/04/11 07:46:40;;;;;;;20.97;14.53;;;6.00;99.90;;;;;;4438663;32;20172;-70
2022/04/11 07:49:09;;;;;;;24.33;14.40;;;5.70;99.90;;;;;;4438601;32;20438;-70
2022/04/11 07:51:36;;;;;;;23.77;14.47;;;5.70;99.90;;;;;;4440461;32;20173;-70
2022/04/11 07:54:04;;;;;;;24.07;14.57;;;5.50;99.90;;;;;;4440331;32;20175;-70
2022/04/11 07:56:31;;;;;;;20.13;13.97;;;5.80;99.90;;;;;;4438363;32;20177;-70
2022/04/11 07:58:58;;;;;;;22.73;13.77;;;5.80;99.90;;;;;;4439806;32;20194;-69
2022/04/11 08:01:28;;;;;;;24.10;13.77;;;5.90;99.90;;;;;;4440181;32;20424;-70
2022/04/11 08:03:56;;;;;;;20.00;13.10;;;5.90;99.90;;;;;;4439035;32;20616;-70
2022/04/11 08:06:23;;;;;;;22.70;13.33;;;6.20;99.90;;;;;;4439245;32;20178;-70
2022/04/11 08:08:50;;;;;;;20.43;13.53;;;6.30;99.90;;;;;;4439936;32;20369;-69
2022/04/11 08:11:19;;;;;;;21.77;13.77;;;6.40;99.90;;;;;;4437871;32;20196;-70
2022/04/11 08:13:48;;;;;;;19.23;13.17;;;6.50;99.90;;;;;;4438198;32;20273;-69
2022/04/11 08:16:15;;;;;;;20.63;13.47;;;6.70;99.90;;;;;;4439680;32;20174;-70
2022/04/11 08:18:43;;;;;;;20.43;12.33;;;6.90;99.90;;;;;;4446999;32;20207;-70
2022/04/11 08:21:10;;;;;;;19.67;11.93;;;7.30;99.90;;;;;;4439218;32;20196;-69
2022/04/11 08:23:37;;;;;;;17.07;11.23;;;8.00;99.90;;;;;;4440220;32;20275;-70
2022/04/11 08:26:05;;;;;;;15.33;9.03;;;8.40;99.90;;;;;;4440537;32;20159;-69
2022/04/11 08:28:32;;;;;;;15.23;8.73;;;7.90;99.90;;;;;;4439858;32;20178;-70
2022/04/11 08:30:59;;;;;;;16.50;8.07;;;8.00;99.90;;;;;;4439191;32;20230;-69
2022/04/11 08:33:30;;;;;;;16.10;8.07;;;8.20;99.90;;;;;;4437519;32;20491;-69
2022/04/11 08:35:57;;;;;;;10.93;6.47;;;8.50;99.90;;;;;;4437548;32;20225;-69
2022/04/11 08:38:25;;;;;;;30.23;9.50;;;8.30;99.90;;;;;;4446139;32;20485;-70
2022/04/11 08:40:54;;;;;;;16.13;7.37;;;8.30;99.90;;;;;;4449527;32;20187;-70
2022/04/11 08:43:26;;;;;;;14.30;7.77;;;8.30;99.90;;;;;;4437673;32;20176;-69
2022/04/11 08:45:53;;;;;;;13.83;8.47;;;8.30;99.90;;;;;;4450501;32;20488;-71
2022/04/11 08:48:24;;;;;;;12.93;7.87;;;7.90;99.90;;;;;;4453368;32;20184;-72
2022/04/11 08:50:52;;;;;;;9.57;6.87;;;8.10;99.90;;;;;;4453211;32;20589;-68
2022/04/11 08:53:21;;;;;;;15.37;7.67;;;8.10;99.90;;;;;;4453713;32;20205;-69
2022/04/11 08:55:49;;;;;;;12.13;8.20;;;8.50;99.90;;;;;;4450889;32;20280;-70
2022/04/11 08:58:16;;;;;;;11.00;8.07;;;8.90;99.90;;;;;;4452900;32;20181;-69
2022/04/11 09:00:45;;;;;;;12.10;7.33;;;8.60;99.90;;;;;;4451494;32;20182;-68
2022/04/11 09:03:12;;;;;;;12.23;7.00;;;8.30;99.90;;;;;;4440116;32;20217;-68
2022/04/11 09:05:39;;;;;;;11.57;6.93;;;8.10;99.90;;;;;;4439976;32;20182;-68
2022/04/11 09:08:07;;;;;;;11.47;6.40;;;8.70;99.90;;;;;;4452345;32;20193;-69
2022/04/11 09:10:38;;;;;;;9.30;5.43;;;8.50;99.90;;;;;;4453397;32;20193;-68
2022/04/11 09:13:07;;;;;;;10.00;4.90;;;8.20;99.90;;;;;;4454605;32;20162;-69
2022/04/11 09:15:43;;;;;;;10.73;5.03;;;7.90;99.90;;;;;;4451000;32;20288;-69
2022/04/11 09:18:11;;;;;;;8.83;4.70;;;7.70;99.90;;;;;;4454670;32;20170;-68
2022/04/11 09:20:42;;;;;;;10.90;4.27;;;8.20;99.90;;;;;;4454189;32;20240;-69
2022/04/11 09:23:20;;;;;;;9.03;4.47;;;8.90;99.90;;;;;;4452807;32;20185;-71
2022/04/11 09:25:47;;;;;;;7.03;4.40;;;9.50;99.90;;;;;;4453188;32;20222;-68
2022/04/11 09:28:14;;;;;;;11.27;4.93;;;9.60;99.90;;;;;;4453381;32;20201;-69
2022/04/11 09:30:44;;;;;;;9.20;5.20;;;9.40;99.90;;;;;;4453459;32;20150;-69
2022/04/11 09:33:12;;;;;;;9.80;5.13;;;8.80;99.90;;;;;;4450378;32;20177;-69
2022/04/11 09:35:49;;;;;;;9.90;5.43;;;8.30;99.90;;;;;;4450709;32;20243;-68
2022/04/11 09:38:18;;;;;;;8.33;5.53;;;7.70;99.90;;;;;;4447416;32;20221;-69
2022/04/11 09:40:49;;;;;;;10.80;5.43;;;7.50;99.90;;;;;;4440354;32;20231;-68
2022/04/11 09:43:27;;;;;;;9.40;5.07;;;7.60;99.90;;;;;;4438226;32;20390;-68
2022/04/11 09:45:55;;;;;;;6.57;4.90;;;7.70;99.90;;;;;;4445298;32;20180;-69
2022/04/11 09:48:25;;;;;;;6.40;4.17;;;8.30;99.90;;;;;;4449856;32;20432;-68
2022/04/11 09:50:53;;;;;;;7.83;4.17;;;9.00;99.90;;;;;;4443595;32;20178;-69
2022/04/11 09:53:23;;;;;;;8.30;4.10;;;9.70;99.90;;;;;;4453010;32;20450;-69
2022/04/11 09:55:52;;;;;;;6.60;4.33;;;10.20;99.90;;;;;;4452249;32;20619;-69
2022/04/11 09:58:21;;;;;;;7.77;4.93;;;10.50;99.90;;;;;;4452535;32;20178;-70
2022/04/11 10:00:50;;;;;;;10.60;7.77;;;10.90;99.90;;;;;;4440763;32;20183;-69
2022/04/11 10:03:25;;;;;;;8.43;4.20;;;11.20;99.90;;;;;;4439744;32;20280;-72
2022/04/11 10:05:58;;;;;;;21.93;13.17;;;11.30;99.90;;;;;;4446515;32;20209;-72
2022/04/11 10:08:27;;;;;;;57.37;32.57;;;11.00;99.90;;;;;;4440311;32;20245;-73
2022/04/11 10:10:55;;;;;;;29.10;17.30;;;10.70;99.90;;;;;;4439782;32;20488;-73
2022/04/11 10:13:23;;;;;;;12.80;7.77;;;10.80;99.90;;;;;;4455640;32;20173;-73
2022/04/11 10:15:50;;;;;;;12.23;6.20;;;11.30;99.90;;;;;;4456042;32;20154;-73
2022/04/11 10:18:25;;;;;;;12.77;6.43;;;11.20;99.90;;;;;;4456089;32;20221;-73
2022/04/11 10:20:57;;;;;;;8.20;4.20;;;11.30;99.90;;;;;;4456834;32;20212;-73
2022/04/11 10:24:06;;;;;;;6.73;3.43;;;11.30;99.90;;;;;;4453778;32;20200;-72
2022/04/11 10:27:20;;;;;;;6.27;3.70;;;10.90;99.90;;;;;;4448796;32;20183;-72
2022/04/11 10:29:51;;;;;;;6.10;3.40;;;10.50;99.90;;;;;;4408686;32;20463;-73
2022/04/11 10:32:21;;;;;;;8.17;3.80;;;10.70;99.90;;;;;;4408422;32;20259;-73
2022/04/11 10:34:53;;;;;;;8.47;3.63;;;11.20;99.90;;;;;;4395652;32;20512;-72
2022/04/11 10:37:27;;;;;;;5.77;3.67;;;11.50;99.50;;;;;;4408404;32;20166;-72
2022/04/11 10:40:17;;;;;;;8.47;3.67;;;11.50;98.70;;;;;;4409935;32;20151;-73
2022/04/11 10:43:04;;;;;;;5.20;3.17;;;11.80;96.40;;;;;;4395022;32;20434;-73
2022/04/11 10:45:36;;;;;;;8.03;3.30;;;11.90;95.10;;;;;;4395060;32;20508;-74
2022/04/11 10:48:04;;;;;;;5.17;3.30;;;12.10;93.50;;;;;;4396606;32;20175;-73
2022/04/11 10:50:36;;;;;;;4.70;3.30;;;12.40;93.40;;;;;;4395791;32;20487;-73
2022/04/11 10:53:11;;;;;;;5.27;3.37;;;12.50;90.90;;;;;;4394460;32;20251;-73
2022/04/11 10:55:54;;;;;;;9.17;3.53;;;11.80;91.20;;;;;;4395074;32;20459;-72
2022/04/11 10:58:23;;;;;;;5.20;3.63;;;11.70;91.40;;;;;;4395135;32;20179;-73
2022/04/11 11:00:53;;;;;;;5.83;3.33;;;11.10;92.20;;;;;;4395781;32;20175;-77
2022/04/11 11:03:20;;;;;;;5.50;3.80;;;10.80;93.40;;;;;;4416342;32;20173;-73
2022/04/11 11:06:19;;;;;;;6.47;3.63;;;10.80;94.30;;;;;;4454347;32;20618;-72
2022/04/11 11:08:46;;;;;;;8.00;3.90;;;10.50;95.20;;;;;;4454790;32;20499;-73
2022/04/11 11:11:27;;;;;;;5.10;3.43;;;10.70;96.90;;;;;;4455423;32;20178;-73
2022/04/11 11:13:56;;;;;;;6.37;3.33;;;10.90;96.40;;;;;;4454429;32;20219;-72
2022/04/11 11:16:26;;;;;;;7.73;3.87;;;11.10;97.80;;;;;;4454282;32;20553;-72
2022/04/11 11:19:13;;;;;;;8.27;3.87;;;10.50;99.80;;;;;;4454775;32;20203;-72
2022/04/11 11:21:44;;;;;;;9.13;4.17;;;9.90;99.90;;;;;;4454130;32;20158;-73
2022/04/11 11:24:12;;;;;;;7.43;4.10;;;9.20;99.90;;;;;;4448526;32;20184;-72
2022/04/11 11:26:45;;;;;;;8.77;4.33;;;8.90;99.90;;;;;;4437279;32;20206;-72
2022/04/11 11:29:41;;;;;;;6.60;4.00;;;8.40;99.90;;;;;;4439332;32;20193;-72
2022/04/11 11:32:12;;;;;;;5.70;3.60;;;8.60;99.90;;;;;;4439986;32;20159;-72
2022/04/11 11:34:41;;;;;;;8.27;3.67;;;8.60;99.90;;;;;;4438847;32;20178;-72
2022/04/11 11:37:11;;;;;;;6.13;3.63;;;8.60;99.90;;;;;;4440467;32;20202;-72
2022/04/11 11:39:40;;;;;;;7.70;3.80;;;8.90;99.90;;;;;;4439879;32;20178;-72
2022/04/11 11:42:10;;;;;;;6.63;3.93;;;9.30;99.90;;;;;;4438387;32;20208;-72
2022/04/11 11:44:47;;;;;;;6.87;3.83;;;9.80;99.90;;;;;;4438186;32;20213;-72
2022/04/11 11:47:15;;;;;;;8.13;3.60;;;9.40;99.90;;;;;;4439502;32;20182;-72
2022/04/11 11:49:43;;;;;;;4.60;2.50;;;9.70;99.90;;;;;;4438339;32;20564;-72
2022/04/11 11:52:20;;;;;;;4.50;2.33;;;10.20;99.90;;;;;;4439473;32;20171;-72
2022/04/11 11:54:51;;;;;;;4.87;2.40;;;10.70;99.90;;;;;;4438473;32;20562;-72
2022/04/11 11:57:23;;;;;;;4.40;2.43;;;11.30;99.90;;;;;;4438630;32;20217;-72
2022/04/11 12:00:19;;;;;;;3.10;2.33;;;12.00;99.90;;;;;;4439672;32;20143;-72
2022/04/11 12:05:33;;;;;;;3.57;1.87;;;12.40;97.30;;;;;;4406868;32;20159;-72
2022/04/11 12:08:03;;;;;;;4.53;2.33;;;12.40;94.00;;;;;;4394818;32;20238;-72
2022/04/11 12:10:31;;;;;;;4.53;2.87;;;12.20;93.20;;;;;;4395738;32;20198;-71
2022/04/11 12:12:58;;;;;;;4.33;2.33;;;11.60;93.90;;;;;;4394260;32;20175;-72
2022/04/11 12:15:32;;;;;;;6.77;2.80;;;11.60;94.40;;;;;;4408333;32;20143;-68
2022/04/11 12:18:09;;;;;;;3.80;2.30;;;11.90;94.90;;;;;;4388431;32;20543;-67
2022/04/11 12:20:37;;;;;;;4.80;2.20;;;11.80;94.00;;;;;;4379117;32;20213;-71
2022/04/11 12:23:12;;;;;;;3.90;2.77;;;11.70;99.60;;;;;;4379223;32;20169;-77
2022/04/11 12:25:48;;;;;;;5.70;3.07;;;11.70;99.90;;;;;;4379312;32;20693;-77
2022/04/11 12:28:26;;;;;;;5.53;3.23;;;10.60;99.90;;;;;;4378878;32;20171;-76
2022/04/11 12:31:02;;;;;;;7.60;3.60;;;10.20;99.90;;;;;;4382152;32;20183;-76
2022/04/11 12:33:37;;;;;;;6.77;3.30;;;9.80;99.90;;;;;;4391356;32;20187;-76
2022/04/11 12:36:12;;;;;;;6.80;3.67;;;9.40;99.90;;;;;;4380589;32;20220;-75
2022/04/11 12:38:56;;;;;;;7.03;3.60;;;9.00;99.90;;;;;;4392709;32;20200;-76
2022/04/11 12:41:37;;;;;;;7.70;3.90;;;8.90;99.90;;;;;;4439520;32;20189;-76
2022/04/11 12:44:14;;;;;;;7.37;3.67;;;8.70;99.90;;;;;;4438510;32;20236;-76
2022/04/11 12:46:41;;;;;;;6.83;3.87;;;8.60;99.90;;;;;;4443479;32;20172;-76
2022/04/11 12:49:10;;;;;;;6.40;2.83;;;8.60;99.90;;;;;;4453619;32;20200;-76
2022/04/11 12:51:38;;;;;;;6.97;2.67;;;8.70;99.90;;;;;;4455169;32;20198;-75
2022/04/11 12:54:10;;;;;;;5.83;2.57;;;8.40;99.90;;;;;;4453510;32;20231;-75
2022/04/11 12:56:42;;;;;;;5.60;2.90;;;8.50;99.90;;;;;;4455176;32;20157;-75
2022/04/11 12:59:11;;;;;;;5.53;3.07;;;8.50;99.90;;;;;;4453283;32;20617;-75
2022/04/11 13:01:52;;;;;;;6.03;2.60;;;8.40;99.90;;;;;;4455137;32;20165;-75
2022/04/11 13:04:20;;;;;;;5.00;2.80;;;9.40;99.90;;;;;;4453206;32;20264;-75